Time;durP1;ratioP1;P1;durP2;ratioP2;P2;SDS_P1;SDS_P2;PMS_P1;PMS_P2;Temp;Humidity;BMP_temperature;BMP_pressure;BME280_temperature;BME280_humidity;BME280_pressure;Samples;Min_cycle;Max_cycle;Signal;HPM_P1;HPM_P2
2023/04/09 00:01:23;;;;;;;15.77;9.23;;;;;;;;;;4968999;28;20037;-55
2023/04/09 00:03:48;;;;;;;12.20;8.48;;;;;;;;;;4965754;28;20034;-57
2023/04/09 00:06:13;;;;;;;12.60;8.93;;;;;;;;;;4967326;28;20261;-55
2023/04/09 00:08:39;;;;;;;12.90;9.32;;;;;;;;;;4970619;28;20061;-56
2023/04/09 00:11:04;;;;;;;12.90;9.10;;;;;;;;;;4963339;28;20034;-57
2023/04/09 00:13:30;;;;;;;13.85;9.30;;;;;;;;;;4966689;28;20037;-57
2023/04/09 00:15:55;;;;;;;13.90;9.38;;;;;;;;;;4964762;28;20109;-61
2023/04/09 00:18:20;;;;;;;15.00;9.32;;;;;;;;;;4967305;28;20073;-57
2023/04/09 00:20:45;;;;;;;13.30;9.18;;;;;;;;;;4965069;28;20031;-55
2023/04/09 00:23:11;;;;;;;14.18;8.98;;;;;;;;;;4966889;28;20479;-54
2023/04/09 00:25:36;;;;;;;13.90;9.23;;;;;;;;;;4968483;28;20022;-57
2023/04/09 00:28:02;;;;;;;12.27;8.50;;;;;;;;;;4963167;28;20424;-55
2023/04/09 00:30:28;;;;;;;13.30;8.27;;;;;;;;;;4965268;28;20062;-57
2023/04/09 00:32:53;;;;;;;11.80;8.80;;;;;;;;;;4957365;28;20031;-58
2023/04/09 00:35:18;;;;;;;14.82;9.00;;;;;;;;;;4966794;28;20038;-54
2023/04/09 00:37:44;;;;;;;13.85;9.48;;;;;;;;;;4959858;28;20042;-52
2023/04/09 00:40:09;;;;;;;14.63;9.73;;;;;;;;;;4970781;28;20150;-55
2023/04/09 00:42:36;;;;;;;13.10;9.30;;;;;;;;;;4969951;28;20022;-53
2023/04/09 00:45:05;;;;;;;14.30;9.35;;;;;;;;;;4966331;28;20041;-51
2023/04/09 00:47:31;;;;;;;13.43;9.52;;;;;;;;;;4971367;28;20082;-59
2023/04/09 00:49:56;;;;;;;13.88;9.88;;;;;;;;;;4968751;28;20031;-56
2023/04/09 00:52:22;;;;;;;15.80;9.82;;;;;;;;;;4967696;28;20054;-53
2023/04/09 00:54:48;;;;;;;14.82;9.18;;;;;;;;;;4958561;28;20050;-54
2023/04/09 00:57:14;;;;;;;15.25;9.65;;;;;;;;;;4963671;28;20090;-53
2023/04/09 00:59:39;;;;;;;15.23;10.20;;;;;;;;;;4962324;28;20109;-57
2023/04/09 01:02:05;;;;;;;16.88;10.10;;;;;;;;;;4971983;28;20058;-53
2023/04/09 01:04:30;;;;;;;15.32;9.90;;;;;;;;;;4965412;28;20050;-54
2023/04/09 01:07:25;;;;;;;14.52;9.75;;;;;;;;;;4944465;28;20661;-58
2023/04/09 01:10:00;;;;;;;14.00;9.23;;;;;;;;;;4943272;28;20050;-56
2023/04/09 01:12:28;;;;;;;14.73;9.73;;;;;;;;;;4970661;28;20042;-53
2023/04/09 01:14:56;;;;;;;16.70;10.02;;;;;;;;;;4960911;28;20444;-53
2023/04/09 01:17:29;;;;;;;15.35;9.80;;;;;;;;;;4961195;28;20022;-53
2023/04/09 01:20:01;;;;;;;15.77;10.13;;;;;;;;;;4969797;28;20027;-56
2023/04/09 01:22:47;;;;;;;15.32;9.90;;;;;;;;;;4977198;28;20484;-56
2023/04/09 01:25:33;;;;;;;15.70;9.80;;;;;;;;;;4964863;28;20074;-57
2023/04/09 01:28:11;;;;;;;18.42;11.20;;;;;;;;;;4979833;28;20077;-54
2023/04/09 01:30:36;;;;;;;17.08;10.20;;;;;;;;;;4963443;28;20090;-59
2023/04/09 01:33:02;;;;;;;13.85;9.57;;;;;;;;;;4967489;28;20034;-57
2023/04/09 01:35:28;;;;;;;15.02;9.25;;;;;;;;;;4987224;28;20444;-56
2023/04/09 01:37:54;;;;;;;15.10;10.82;;;;;;;;;;4979250;28;20519;-57
2023/04/09 01:40:20;;;;;;;17.42;11.20;;;;;;;;;;4966920;28;20040;-56
2023/04/09 01:42:45;;;;;;;14.68;9.60;;;;;;;;;;4972399;28;20035;-54
2023/04/09 01:45:12;;;;;;;15.90;10.07;;;;;;;;;;4969918;28;20041;-55
2023/04/09 01:47:38;;;;;;;16.27;10.38;;;;;;;;;;4967547;28;20062;-56
2023/04/09 01:50:03;;;;;;;17.77;10.05;;;;;;;;;;4978155;28;20144;-57
2023/04/09 01:52:29;;;;;;;16.58;10.38;;;;;;;;;;4969881;28;20022;-53
2023/04/09 01:54:54;;;;;;;15.45;10.35;;;;;;;;;;4975489;28;20050;-54
2023/04/09 01:57:19;;;;;;;14.77;9.15;;;;;;;;;;4986517;28;20041;-57
2023/04/09 01:59:45;;;;;;;13.55;8.82;;;;;;;;;;4977971;28;20399;-53
2023/04/09 02:02:13;;;;;;;20.27;11.18;;;;;;;;;;4962907;28;20201;-55
2023/04/09 02:04:40;;;;;;;21.17;13.18;;;;;;;;;;4969973;28;20066;-53
2023/04/09 02:07:28;;;;;;;15.32;10.80;;;;;;;;;;4965439;28;20038;-56
2023/04/09 02:09:54;;;;;;;13.57;9.82;;;;;;;;;;4965719;28;20075;-53
2023/04/09 02:12:20;;;;;;;18.40;10.23;;;;;;;;;;4972312;28;20042;-57
2023/04/09 02:14:47;;;;;;;15.98;10.52;;;;;;;;;;4974658;28;20095;-56
2023/04/09 02:17:12;;;;;;;15.68;9.98;;;;;;;;;;4968648;28;20341;-57
2023/04/09 02:19:38;;;;;;;15.80;9.73;;;;;;;;;;4972624;28;20030;-58
2023/04/09 02:22:04;;;;;;;19.52;10.73;;;;;;;;;;4969868;28;20035;-58
2023/04/09 02:24:29;;;;;;;17.02;10.73;;;;;;;;;;4966433;28;20046;-57
2023/04/09 02:26:54;;;;;;;19.70;11.05;;;;;;;;;;4966544;28;20027;-55
2023/04/09 02:29:20;;;;;;;15.68;10.38;;;;;;;;;;4971635;28;20031;-60
2023/04/09 02:31:45;;;;;;;16.30;11.18;;;;;;;;;;4966221;28;20489;-57
2023/04/09 02:34:10;;;;;;;16.10;10.75;;;;;;;;;;4961930;28;20062;-53
2023/04/09 02:36:36;;;;;;;18.80;10.93;;;;;;;;;;4975836;28;20033;-55
2023/04/09 02:39:01;;;;;;;16.40;10.30;;;;;;;;;;4969217;28;20054;-55
2023/04/09 02:41:26;;;;;;;17.75;10.68;;;;;;;;;;4964176;28;20119;-57
2023/04/09 02:43:51;;;;;;;15.10;9.95;;;;;;;;;;4983501;28;20038;-56
2023/04/09 02:46:17;;;;;;;15.43;9.90;;;;;;;;;;4968891;28;20026;-55
2023/04/09 02:48:42;;;;;;;15.02;10.52;;;;;;;;;;4983000;28;20480;-57
2023/04/09 02:51:07;;;;;;;14.95;9.63;;;;;;;;;;4966071;28;20026;-55
2023/04/09 02:53:33;;;;;;;14.40;10.15;;;;;;;;;;4969927;28;20065;-56
2023/04/09 02:55:58;;;;;;;15.65;10.82;;;;;;;;;;4963644;28;20027;-50
2023/04/09 02:58:23;;;;;;;16.67;10.70;;;;;;;;;;4964658;28;20580;-56
2023/04/09 03:00:49;;;;;;;16.00;9.73;;;;;;;;;;4971098;28;20507;-56
2023/04/09 03:03:14;;;;;;;17.45;10.80;;;;;;;;;;4964487;28;20031;-55
2023/04/09 03:05:39;;;;;;;16.20;10.60;;;;;;;;;;4969454;28;20392;-55
2023/04/09 03:08:05;;;;;;;17.58;10.60;;;;;;;;;;4976185;28;20035;-58
2023/04/09 03:10:30;;;;;;;15.30;10.43;;;;;;;;;;4966724;28;20081;-55
2023/04/09 03:12:55;;;;;;;15.55;10.38;;;;;;;;;;4965627;28;20061;-55
2023/04/09 03:15:21;;;;;;;17.73;11.23;;;;;;;;;;4970011;28;20047;-56
2023/04/09 03:17:46;;;;;;;16.63;11.15;;;;;;;;;;4967812;28;20031;-56
2023/04/09 03:20:11;;;;;;;16.13;10.68;;;;;;;;;;4961048;28;20089;-57
2023/04/09 03:22:38;;;;;;;16.90;10.15;;;;;;;;;;4979928;28;20070;-57
2023/04/09 03:25:09;;;;;;;15.38;10.73;;;;;;;;;;4972572;28;20034;-54
2023/04/09 03:27:35;;;;;;;16.90;10.25;;;;;;;;;;4964743;28;20443;-55
2023/04/09 03:30:02;;;;;;;16.35;10.65;;;;;;;;;;4967231;28;20053;-58
2023/04/09 03:32:34;;;;;;;18.00;9.60;;;;;;;;;;4966325;28;20034;-58
2023/04/09 03:35:00;;;;;;;15.38;10.10;;;;;;;;;;4963856;28;20119;-57
2023/04/09 03:37:26;;;;;;;17.15;10.40;;;;;;;;;;4971656;28;20067;-55
2023/04/09 03:39:51;;;;;;;16.45;11.13;;;;;;;;;;4984833;28;20031;-56
2023/04/09 03:42:17;;;;;;;15.43;10.85;;;;;;;;;;4979951;28;20486;-52
2023/04/09 03:44:46;;;;;;;16.35;10.18;;;;;;;;;;4975940;28;20034;-55
2023/04/09 03:47:16;;;;;;;16.58;10.48;;;;;;;;;;4971339;28;20035;-55
2023/04/09 03:49:41;;;;;;;18.52;11.30;;;;;;;;;;4964534;28;20039;-53
2023/04/09 03:52:15;;;;;;;19.92;10.90;;;;;;;;;;4964902;28;20427;-55
2023/04/09 03:54:44;;;;;;;15.15;10.18;;;;;;;;;;4973527;28;20675;-51
2023/04/09 03:57:17;;;;;;;15.30;10.63;;;;;;;;;;4967563;28;20023;-61
2023/04/09 03:59:45;;;;;;;17.20;10.65;;;;;;;;;;4976970;28;20042;-56
2023/04/09 04:02:12;;;;;;;19.45;11.93;;;;;;;;;;4964347;28;20026;-56
2023/04/09 04:04:42;;;;;;;17.33;11.23;;;;;;;;;;4965650;28;20051;-54
2023/04/09 04:07:09;;;;;;;18.48;12.40;;;;;;;;;;4976962;28;20034;-59
2023/04/09 04:09:39;;;;;;;17.17;11.73;;;;;;;;;;4974010;28;20495;-54
2023/04/09 04:12:09;;;;;;;24.98;12.43;;;;;;;;;;4969751;28;20112;-55
2023/04/09 04:15:13;;;;;;;20.00;12.18;;;;;;;;;;4956454;28;20602;-58
2023/04/09 04:17:44;;;;;;;19.45;12.30;;;;;;;;;;4955734;28;20038;-56
2023/04/09 04:20:36;;;;;;;19.33;12.07;;;;;;;;;;4984030;28;20039;-56
2023/04/09 04:23:06;;;;;;;17.17;11.40;;;;;;;;;;4965642;28;20078;-56
2023/04/09 04:25:34;;;;;;;;;;;;;;;;;;4967084;28;20488;-54
2023/04/09 04:27:59;;;;;;;18.73;11.48;;;;;;;;;;4987021;28;20011;-53
2023/04/09 04:30:34;;;;;;;19.40;12.43;;;;;;;;;;4966387;28;20407;-53
2023/04/09 04:33:04;;;;;;;19.73;13.18;;;;;;;;;;4965743;28;20046;-57
2023/04/09 04:35:37;;;;;;;22.55;14.68;;;;;;;;;;4963489;28;20043;-57
2023/04/09 04:38:05;;;;;;;26.98;15.70;;;;;;;;;;4959248;28;20031;-58
2023/04/09 04:40:34;;;;;;;21.48;13.35;;;;;;;;;;4965218;28;20494;-54
2023/04/09 04:43:00;;;;;;;23.23;14.55;;;;;;;;;;4968787;28;20042;-53
2023/04/09 04:45:26;;;;;;;21.73;13.73;;;;;;;;;;4944466;28;20039;-52
2023/04/09 04:47:57;;;;;;;22.98;14.02;;;;;;;;;;4948183;28;20054;-54
2023/04/09 04:50:23;;;;;;;21.98;14.20;;;;;;;;;;4971798;28;20387;-54
2023/04/09 04:52:57;;;;;;;21.23;13.45;;;;;;;;;;4962009;28;20077;-58
2023/04/09 04:55:26;;;;;;;25.02;14.65;;;;;;;;;;4959680;28;20504;-53
2023/04/09 04:57:52;;;;;;;21.63;13.65;;;;;;;;;;4972422;28;20065;-54
2023/04/09 05:00:20;;;;;;;24.80;14.55;;;;;;;;;;4984912;28;21017;-57
2023/04/09 05:02:46;;;;;;;21.58;13.65;;;;;;;;;;4968873;28;20034;-57
2023/04/09 05:05:41;;;;;;;21.30;14.20;;;;;;;;;;4963331;28;20043;-55
2023/04/09 05:08:07;;;;;;;25.75;14.30;;;;;;;;;;4973895;28;20365;-55
2023/04/09 05:10:32;;;;;;;23.20;13.70;;;;;;;;;;4972041;28;20508;-56
2023/04/09 05:12:58;;;;;;;22.67;13.25;;;;;;;;;;4962226;28;20042;-60
2023/04/09 05:15:30;;;;;;;25.90;14.73;;;;;;;;;;4971254;28;20077;-55
2023/04/09 05:17:55;;;;;;;22.17;13.50;;;;;;;;;;4966435;28;20110;-53
2023/04/09 05:20:21;;;;;;;22.23;13.23;;;;;;;;;;4976256;28;20031;-54
2023/04/09 05:22:55;;;;;;;21.10;13.45;;;;;;;;;;4984422;28;20085;-55
2023/04/09 05:25:27;;;;;;;20.63;12.27;;;;;;;;;;4962101;28;20039;-54
2023/04/09 05:27:53;;;;;;;22.38;13.48;;;;;;;;;;4967846;28;20065;-58
2023/04/09 05:30:18;;;;;;;22.25;13.30;;;;;;;;;;4973410;28;20034;-54
2023/04/09 05:32:44;;;;;;;15.68;10.63;;;;;;;;;;4962630;28;20039;-54
2023/04/09 05:35:10;;;;;;;18.23;12.07;;;;;;;;;;4978459;28;20043;-52
2023/04/09 05:37:39;;;;;;;17.13;11.88;;;;;;;;;;4988341;28;20045;-60
2023/04/09 05:40:05;;;;;;;18.20;10.68;;;;;;;;;;4972430;28;20019;-56
2023/04/09 05:42:31;;;;;;;16.88;11.15;;;;;;;;;;4981306;28;20080;-57
2023/04/09 05:45:03;;;;;;;17.63;11.30;;;;;;;;;;4971482;28;20039;-54
2023/04/09 05:47:28;;;;;;;19.05;12.05;;;;;;;;;;4965042;28;20035;-57
2023/04/09 05:50:14;;;;;;;19.48;11.93;;;;;;;;;;4969393;28;20042;-59
2023/04/09 05:52:39;;;;;;;18.33;11.80;;;;;;;;;;4972115;28;20027;-57
2023/04/09 05:55:05;;;;;;;17.98;11.48;;;;;;;;;;4977976;28;20047;-53
2023/04/09 05:57:41;;;;;;;19.45;12.85;;;;;;;;;;4967867;28;20123;-55
2023/04/09 06:00:07;;;;;;;19.08;12.10;;;;;;;;;;4960681;28;20563;-57
2023/04/09 06:02:41;;;;;;;15.85;11.02;;;;;;;;;;4968762;28;20045;-61
2023/04/09 06:05:07;;;;;;;18.38;11.55;;;;;;;;;;4967500;28;20035;-55
2023/04/09 06:07:32;;;;;;;18.08;11.95;;;;;;;;;;4976921;28;20038;-53
2023/04/09 06:09:58;;;;;;;19.27;12.43;;;;;;;;;;4970789;28;20042;-53
2023/04/09 06:12:23;;;;;;;18.88;11.63;;;;;;;;;;4969592;28;20046;-58
2023/04/09 06:14:48;;;;;;;16.90;11.30;;;;;;;;;;4966656;28;20043;-56
2023/04/09 06:17:14;;;;;;;16.98;11.52;;;;;;;;;;4987727;28;20114;-54
2023/04/09 06:19:39;;;;;;;18.95;12.32;;;;;;;;;;4967998;28;20054;-53
2023/04/09 06:22:05;;;;;;;28.27;15.65;;;;;;;;;;4965753;28;20049;-57
2023/04/09 06:24:31;;;;;;;25.05;15.38;;;;;;;;;;4972513;28;20142;-57
2023/04/09 06:26:56;;;;;;;22.23;13.53;;;;;;;;;;4971143;28;20087;-55
2023/04/09 06:29:22;;;;;;;17.73;11.55;;;;;;;;;;4975287;28;20272;-57
2023/04/09 06:31:47;;;;;;;19.83;11.90;;;;;;;;;;4968660;28;20042;-57
2023/04/09 06:34:12;;;;;;;16.55;11.35;;;;;;;;;;4968955;28;20536;-56
2023/04/09 06:36:39;;;;;;;20.08;11.90;;;;;;;;;;4972287;28;20084;-57
2023/04/09 06:39:04;;;;;;;16.80;11.63;;;;;;;;;;4973651;28;20035;-53
2023/04/09 06:41:31;;;;;;;20.70;15.52;;;;;;;;;;4965086;28;20030;-51
2023/04/09 06:43:56;;;;;;;18.63;12.73;;;;;;;;;;4971360;28;20109;-55
2023/04/09 06:46:22;;;;;;;15.95;11.10;;;;;;;;;;4967673;28;20106;-55
2023/04/09 06:48:48;;;;;;;17.35;11.68;;;;;;;;;;4965713;28;20467;-54
2023/04/09 06:51:13;;;;;;;17.05;11.98;;;;;;;;;;4963745;28;20031;-57
2023/04/09 06:53:39;;;;;;;17.02;11.50;;;;;;;;;;4964643;28;20062;-59
2023/04/09 06:56:04;;;;;;;15.73;10.70;;;;;;;;;;4967372;28;20040;-58
2023/04/09 06:58:30;;;;;;;17.67;11.00;;;;;;;;;;4967316;28;20038;-55
2023/04/09 07:00:55;;;;;;;15.70;10.40;;;;;;;;;;4967824;28;20402;-56
2023/04/09 07:03:21;;;;;;;16.92;10.38;;;;;;;;;;4963662;28;20034;-59
2023/04/09 07:05:46;;;;;;;15.02;10.30;;;;;;;;;;4963025;28;20431;-53
2023/04/09 07:08:11;;;;;;;16.33;11.40;;;;;;;;;;4965457;28;20039;-57
2023/04/09 07:10:37;;;;;;;15.48;11.00;;;;;;;;;;4969618;28;20066;-58
2023/04/09 07:13:02;;;;;;;16.17;11.27;;;;;;;;;;4967844;28;20027;-55
2023/04/09 07:15:27;;;;;;;16.45;10.23;;;;;;;;;;4964274;28;20034;-57
2023/04/09 07:17:53;;;;;;;16.00;10.63;;;;;;;;;;4967809;28;20034;-58
2023/04/09 07:20:18;;;;;;;15.52;10.48;;;;;;;;;;4979532;28;20979;-55
2023/04/09 07:22:43;;;;;;;15.20;10.25;;;;;;;;;;4980508;28;20050;-57
2023/04/09 07:25:09;;;;;;;16.02;11.15;;;;;;;;;;4969021;28;20047;-54
2023/04/09 07:27:34;;;;;;;16.48;11.00;;;;;;;;;;4955097;28;20113;-58
2023/04/09 07:29:59;;;;;;;17.88;12.43;;;;;;;;;;4966710;28;20070;-56
2023/04/09 07:32:26;;;;;;;16.45;11.68;;;;;;;;;;4964045;28;20391;-51
2023/04/09 07:34:52;;;;;;;16.73;11.38;;;;;;;;;;4967894;28;20113;-56
2023/04/09 07:37:18;;;;;;;16.08;11.10;;;;;;;;;;4981054;28;20031;-57
2023/04/09 07:39:43;;;;;;;15.52;10.43;;;;;;;;;;4965648;28;20030;-54
2023/04/09 07:42:09;;;;;;;13.55;10.07;;;;;;;;;;4964496;28;20031;-57
2023/04/09 07:44:35;;;;;;;13.10;10.45;;;;;;;;;;4967278;28;20034;-57
2023/04/09 07:47:04;;;;;;;14.57;10.85;;;;;;;;;;4972306;28;20045;-57
2023/04/09 07:49:29;;;;;;;15.40;10.45;;;;;;;;;;4964512;28;20045;-62
2023/04/09 07:51:55;;;;;;;14.98;10.65;;;;;;;;;;4967924;28;20227;-56
2023/04/09 07:54:21;;;;;;;12.65;9.52;;;;;;;;;;4954598;28;20140;-54
2023/04/09 07:56:46;;;;;;;14.23;9.52;;;;;;;;;;4967356;28;20034;-57
2023/04/09 07:59:14;;;;;;;12.85;10.05;;;;;;;;;;4967372;28;20034;-57
2023/04/09 08:01:39;;;;;;;;;;;;;;;;;;4969325;28;20022;-53
2023/04/09 08:04:04;;;;;;;12.98;9.70;;;;;;;;;;4968406;28;19917;-56
2023/04/09 08:06:30;;;;;;;13.40;9.32;;;;;;;;;;4964577;28;20031;-56
2023/04/09 08:08:55;;;;;;;14.02;9.02;;;;;;;;;;4963552;28;20043;-56
2023/04/09 08:11:24;;;;;;;14.38;9.93;;;;;;;;;;4971025;28;20022;-57
2023/04/09 08:13:52;;;;;;;13.50;9.52;;;;;;;;;;4964279;28;20057;-55
2023/04/09 08:16:18;;;;;;;14.18;9.68;;;;;;;;;;4965274;28;20023;-52
2023/04/09 08:18:43;;;;;;;13.30;9.68;;;;;;;;;;4963669;28;20042;-52
2023/04/09 08:21:08;;;;;;;12.57;8.75;;;;;;;;;;4970086;28;20058;-57
2023/04/09 08:23:34;;;;;;;12.27;8.38;;;;;;;;;;4968353;28;20066;-57
2023/04/09 08:25:59;;;;;;;13.23;9.23;;;;;;;;;;4965123;28;20031;-56
2023/04/09 08:28:24;;;;;;;11.60;8.80;;;;;;;;;;4971514;28;20117;-57
2023/04/09 08:30:50;;;;;;;12.68;8.80;;;;;;;;;;4961196;28;20836;-55
2023/04/09 08:33:16;;;;;;;11.85;7.70;;;;;;;;;;4968301;28;20041;-55
2023/04/09 08:35:42;;;;;;;13.30;8.68;;;;;;;;;;4960250;28;20381;-57
2023/04/09 08:38:07;;;;;;;11.18;7.93;;;;;;;;;;4962605;28;20062;-57
2023/04/09 08:40:33;;;;;;;11.82;8.93;;;;;;;;;;4968012;28;20033;-56
2023/04/09 08:42:59;;;;;;;9.70;7.32;;;;;;;;;;4969577;28;20038;-50
2023/04/09 08:45:24;;;;;;;10.45;7.47;;;;;;;;;;4968350;28;20045;-51
2023/04/09 08:47:50;;;;;;;11.25;8.27;;;;;;;;;;4971150;28;20030;-54
2023/04/09 08:50:16;;;;;;;10.55;7.82;;;;;;;;;;4971269;28;20038;-57
2023/04/09 08:52:41;;;;;;;11.30;7.70;;;;;;;;;;4968418;28;20596;-55
2023/04/09 08:55:07;;;;;;;9.77;6.82;;;;;;;;;;4967261;28;20045;-53
2023/04/09 08:57:36;;;;;;;10.52;7.80;;;;;;;;;;4968513;28;20035;-54
2023/04/09 09:00:02;;;;;;;10.20;7.20;;;;;;;;;;4964874;28;20034;-59
2023/04/09 09:02:27;;;;;;;10.23;8.07;;;;;;;;;;4962532;28;20038;-57
2023/04/09 09:04:58;;;;;;;9.82;7.72;;;;;;;;;;4966065;28;20034;-56
2023/04/09 09:07:23;;;;;;;8.60;6.90;;;;;;;;;;4969318;28;20045;-53
2023/04/09 09:09:49;;;;;;;9.80;7.38;;;;;;;;;;4967273;28;20294;-56
2023/04/09 09:12:29;;;;;;;10.13;7.35;;;;;;;;;;4962453;28;20035;-53
2023/04/09 09:14:54;;;;;;;11.10;6.50;;;;;;;;;;4964371;28;20046;-57
2023/04/09 09:17:20;;;;;;;9.57;7.05;;;;;;;;;;4969503;28;20407;-56
2023/04/09 09:19:45;;;;;;;10.85;8.13;;;;;;;;;;4964970;28;20082;-56
2023/04/09 09:22:12;;;;;;;9.60;7.53;;;;;;;;;;4963448;28;20038;-54
2023/04/09 09:24:50;;;;;;;8.70;6.63;;;;;;;;;;4965422;28;20771;-52
2023/04/09 09:27:35;;;;;;;9.95;6.80;;;;;;;;;;4964160;28;20406;-51
2023/04/09 09:30:04;;;;;;;9.68;7.25;;;;;;;;;;4970837;28;20089;-57
2023/04/09 09:32:30;;;;;;;9.30;6.80;;;;;;;;;;4969411;28;20031;-49
2023/04/09 09:35:02;;;;;;;8.32;6.28;;;;;;;;;;4969770;28;20042;-56
2023/04/09 09:37:28;;;;;;;7.85;5.93;;;;;;;;;;4962601;28;20117;-55
2023/04/09 09:39:54;;;;;;;9.68;7.25;;;;;;;;;;4972137;28;20247;-53
2023/04/09 09:42:19;;;;;;;9.20;6.97;;;;;;;;;;4964879;28;20042;-52
2023/04/09 09:44:46;;;;;;;7.88;6.13;;;;;;;;;;4981053;28;20097;-55
2023/04/09 09:47:12;;;;;;;7.10;5.60;;;;;;;;;;4959863;28;20038;-52
2023/04/09 09:49:37;;;;;;;8.50;5.40;;;;;;;;;;4966895;28;20091;-55
2023/04/09 09:52:05;;;;;;;9.23;5.88;;;;;;;;;;4965703;28;20054;-55
2023/04/09 09:54:37;;;;;;;7.57;5.70;;;;;;;;;;4965876;28;20043;-56
2023/04/09 09:57:04;;;;;;;7.80;5.78;;;;;;;;;;4969167;28;20059;-52
2023/04/09 09:59:32;;;;;;;7.47;5.20;;;;;;;;;;4972274;28;20046;-59
2023/04/09 10:02:04;;;;;;;6.38;4.88;;;;;;;;;;4968721;28;20036;-56
2023/04/09 10:04:32;;;;;;;11.43;5.30;;;;;;;;;;4968888;28;20031;-56
2023/04/09 10:06:59;;;;;;;11.88;7.38;;;;;;;;;;4969948;28;20449;-55
2023/04/09 10:09:26;;;;;;;10.88;6.07;;;;;;;;;;4964864;28;20167;-56
2023/04/09 10:11:52;;;;;;;7.25;5.38;;;;;;;;;;4967043;28;20031;-53
2023/04/09 10:14:18;;;;;;;7.68;5.10;;;;;;;;;;4958693;28;20058;-54
2023/04/09 10:16:43;;;;;;;7.25;5.30;;;;;;;;;;4962504;28;20057;-59
2023/04/09 10:19:12;;;;;;;6.22;4.30;;;;;;;;;;4956195;28;20153;-55
2023/04/09 10:21:42;;;;;;;6.05;4.10;;;;;;;;;;4963048;28;20566;-60
2023/04/09 10:24:08;;;;;;;6.03;4.43;;;;;;;;;;4966455;28;20129;-54
2023/04/09 10:26:35;;;;;;;7.75;4.97;;;;;;;;;;4964162;28;20113;-58
2023/04/09 10:29:05;;;;;;;6.90;4.97;;;;;;;;;;4975832;28;20472;-53
2023/04/09 10:31:51;;;;;;;7.47;5.03;;;;;;;;;;4960456;28;20619;-50
2023/04/09 10:34:17;;;;;;;6.18;4.28;;;;;;;;;;4952554;28;21867;-57
2023/04/09 10:36:43;;;;;;;6.25;4.38;;;;;;;;;;4971393;28;20062;-51
2023/04/09 10:39:12;;;;;;;6.00;4.22;;;;;;;;;;4958091;28;20515;-53
2023/04/09 10:41:38;;;;;;;6.60;4.90;;;;;;;;;;4971452;28;20092;-56
2023/04/09 10:44:18;;;;;;;6.05;4.30;;;;;;;;;;4965614;28;20726;-53
2023/04/09 10:46:44;;;;;;;6.35;4.68;;;;;;;;;;4962250;28;20134;-57
2023/04/09 10:49:17;;;;;;;8.13;4.25;;;;;;;;;;4969203;28;20098;-55
2023/04/09 10:51:53;;;;;;;7.75;4.43;;;;;;;;;;4961007;28;20030;-57
2023/04/09 10:54:33;;;;;;;6.18;4.22;;;;;;;;;;4957487;28;20053;-55
2023/04/09 10:57:07;;;;;;;5.93;4.32;;;;;;;;;;4969380;28;20394;-55
2023/04/09 10:59:33;;;;;;;6.28;4.60;;;;;;;;;;4964448;28;20467;-55
2023/04/09 11:01:58;;;;;;;6.43;4.32;;;;;;;;;;4957254;28;20022;-61
2023/04/09 11:04:27;;;;;;;5.63;4.22;;;;;;;;;;4969067;28;20422;-54
2023/04/09 11:06:53;;;;;;;5.40;4.10;;;;;;;;;;4964122;28;20034;-56
2023/04/09 11:09:18;;;;;;;7.00;4.47;;;;;;;;;;4968197;28;20085;-55
2023/04/09 11:11:50;;;;;;;8.57;5.63;;;;;;;;;;4960106;28;20030;-55
2023/04/09 11:14:19;;;;;;;8.18;5.40;;;;;;;;;;4963703;28;20511;-56
2023/04/09 11:16:46;;;;;;;10.23;7.07;;;;;;;;;;4963899;28;20451;-53
2023/04/09 11:19:11;;;;;;;20.80;11.98;;;;;;;;;;4962029;28;20066;-55
2023/04/09 11:21:36;;;;;;;6.72;4.32;;;;;;;;;;4964362;28;20166;-58
2023/04/09 11:24:02;;;;;;;5.93;4.18;;;;;;;;;;4961458;28;20039;-57
2023/04/09 11:26:36;;;;;;;5.43;3.75;;;;;;;;;;4959431;28;20161;-56
2023/04/09 11:29:08;;;;;;;6.60;4.30;;;;;;;;;;4966191;28;20042;-54
2023/04/09 11:31:34;;;;;;;5.30;3.80;;;;;;;;;;4971872;28;20691;-55
2023/04/09 11:34:00;;;;;;;6.28;4.10;;;;;;;;;;4960080;28;20053;-54
2023/04/09 11:36:26;;;;;;;27.08;13.10;;;;;;;;;;4962604;28;20026;-61
2023/04/09 11:38:53;;;;;;;6.72;4.53;;;;;;;;;;4956776;28;20039;-63
2023/04/09 11:41:32;;;;;;;5.68;4.20;;;;;;;;;;4955845;28;20038;-54
2023/04/09 11:43:57;;;;;;;7.85;4.40;;;;;;;;;;4977862;28;20035;-55
2023/04/09 11:46:24;;;;;;;5.45;3.78;;;;;;;;;;4960906;28;20557;-56
2023/04/09 11:48:50;;;;;;;6.40;3.80;;;;;;;;;;4964226;28;20041;-56
2023/04/09 11:51:15;;;;;;;5.65;4.00;;;;;;;;;;4962776;28;20026;-58
2023/04/09 11:53:41;;;;;;;7.28;4.53;;;;;;;;;;4971556;28;20082;-56
2023/04/09 11:56:06;;;;;;;5.63;4.30;;;;;;;;;;4961728;28;20870;-55
2023/04/09 11:58:31;;;;;;;5.82;4.18;;;;;;;;;;4967051;28;20326;-59
2023/04/09 12:00:57;;;;;;;5.78;4.03;;;;;;;;;;4967310;28;20073;-63
2023/04/09 12:03:29;;;;;;;6.18;4.35;;;;;;;;;;4959300;28;20396;-55
2023/04/09 12:05:55;;;;;;;5.82;4.22;;;;;;;;;;4963338;28;20437;-57
2023/04/09 12:08:23;;;;;;;6.40;4.20;;;;;;;;;;4973208;28;20038;-59
2023/04/09 12:10:50;;;;;;;5.78;4.18;;;;;;;;;;4962519;28;20034;-57
2023/04/09 12:13:15;;;;;;;21.08;8.48;;;;;;;;;;4966528;28;20118;-58
2023/04/09 12:15:42;;;;;;;6.45;4.20;;;;;;;;;;4959839;28;20060;-55
2023/04/09 12:18:08;;;;;;;6.30;4.13;;;;;;;;;;4967048;28;20035;-56
2023/04/09 12:20:33;;;;;;;6.63;4.35;;;;;;;;;;4962751;28;20034;-56
2023/04/09 12:23:01;;;;;;;5.78;4.20;;;;;;;;;;4962803;28;20035;-56
2023/04/09 12:25:27;;;;;;;5.88;4.20;;;;;;;;;;4965298;28;20275;-54
2023/04/09 12:27:53;;;;;;;6.25;4.57;;;;;;;;;;4958933;28;20748;-56
2023/04/09 12:30:18;;;;;;;6.60;4.40;;;;;;;;;;4963491;28;20086;-56
2023/04/09 12:32:44;;;;;;;6.75;4.57;;;;;;;;;;4953367;28;20109;-51
2023/04/09 12:35:10;;;;;;;6.90;4.87;;;;;;;;;;4955405;28;20496;-51
2023/04/09 12:37:35;;;;;;;5.38;4.05;;;;;;;;;;4975568;28;20288;-55
2023/04/09 12:40:00;;;;;;;5.53;3.97;;;;;;;;;;4954342;28;20026;-53
2023/04/09 12:42:26;;;;;;;6.57;4.90;;;;;;;;;;4963982;28;20712;-56
2023/04/09 12:44:51;;;;;;;6.60;4.40;;;;;;;;;;4956634;28;20042;-57
2023/04/09 12:47:17;;;;;;;6.88;4.47;;;;;;;;;;4960575;28;20636;-56
2023/04/09 12:49:45;;;;;;;6.32;4.30;;;;;;;;;;4970186;28;20022;-57
2023/04/09 12:52:10;;;;;;;6.03;4.72;;;;;;;;;;4960975;28;20033;-58
2023/04/09 12:54:36;;;;;;;6.55;4.55;;;;;;;;;;4980929;28;20038;-58
2023/04/09 12:57:01;;;;;;;6.38;4.43;;;;;;;;;;4958032;28;20027;-56
2023/04/09 12:59:26;;;;;;;6.32;4.53;;;;;;;;;;4958508;28;20409;-54
2023/04/09 13:01:52;;;;;;;6.15;4.75;;;;;;;;;;4961783;28;20589;-58
2023/04/09 13:04:17;;;;;;;7.65;4.18;;;;;;;;;;4958707;28;20038;-58
2023/04/09 13:06:42;;;;;;;6.03;4.25;;;;;;;;;;4964226;28;20102;-54
2023/04/09 13:09:07;;;;;;;6.40;4.68;;;;;;;;;;4956996;28;20098;-56
2023/04/09 13:11:33;;;;;;;6.88;4.75;;;;;;;;;;4960374;28;20026;-53
2023/04/09 13:13:58;;;;;;;6.22;4.35;;;;;;;;;;4966168;28;20047;-54
2023/04/09 13:16:23;;;;;;;6.38;4.45;;;;;;;;;;4956666;28;20038;-56
2023/04/09 13:18:49;;;;;;;5.82;4.00;;;;;;;;;;4960267;28;20502;-59
2023/04/09 13:21:17;;;;;;;6.25;4.43;;;;;;;;;;4953633;28;20041;-59
2023/04/09 13:23:43;;;;;;;6.47;4.63;;;;;;;;;;4960256;28;20048;-55
2023/04/09 13:26:08;;;;;;;6.00;4.20;;;;;;;;;;4956330;28;20464;-57
2023/04/09 13:28:33;;;;;;;6.15;4.50;;;;;;;;;;4952647;28;20045;-56
2023/04/09 13:30:58;;;;;;;6.15;4.28;;;;;;;;;;4961503;28;20081;-56
2023/04/09 13:33:24;;;;;;;6.15;4.30;;;;;;;;;;4959998;28;20595;-55
2023/04/09 13:35:50;;;;;;;5.35;3.97;;;;;;;;;;4956837;28;20030;-58
2023/04/09 13:38:15;;;;;;;7.03;4.93;;;;;;;;;;4976603;28;20031;-57
2023/04/09 13:40:40;;;;;;;6.07;4.43;;;;;;;;;;4961382;28;20041;-55
2023/04/09 13:43:06;;;;;;;6.40;4.90;;;;;;;;;;4975120;28;20031;-59
2023/04/09 13:45:31;;;;;;;7.95;5.57;;;;;;;;;;4959860;28;20135;-56
2023/04/09 13:47:58;;;;;;;7.18;5.30;;;;;;;;;;4966390;28;20516;-57
2023/04/09 13:50:23;;;;;;;6.75;4.88;;;;;;;;;;4971416;28;20038;-55
2023/04/09 13:52:48;;;;;;;7.63;5.22;;;;;;;;;;4957464;28;20038;-54
2023/04/09 13:55:14;;;;;;;7.63;5.35;;;;;;;;;;4968714;28;20035;-57
2023/04/09 13:57:39;;;;;;;7.22;5.30;;;;;;;;;;4962431;28;20041;-55
2023/04/09 14:00:05;;;;;;;7.45;5.10;;;;;;;;;;4956114;28;20042;-58
2023/04/09 14:02:31;;;;;;;6.45;4.88;;;;;;;;;;4965902;28;20028;-62
2023/04/09 14:04:58;;;;;;;7.38;5.63;;;;;;;;;;4960575;28;20054;-56
2023/04/09 14:07:23;;;;;;;6.75;5.30;;;;;;;;;;4963880;28;20114;-56
2023/04/09 14:09:50;;;;;;;6.70;5.20;;;;;;;;;;4959204;28;20041;-56
2023/04/09 14:12:15;;;;;;;8.43;4.57;;;;;;;;;;4965663;28;20062;-56
2023/04/09 14:14:40;;;;;;;7.60;4.40;;;;;;;;;;4966151;28;20039;-53
2023/04/09 14:17:06;;;;;;;6.27;4.47;;;;;;;;;;4958919;28;20454;-60
2023/04/09 14:19:31;;;;;;;5.68;4.18;;;;;;;;;;4965544;28;20027;-58
2023/04/09 14:21:56;;;;;;;6.55;4.35;;;;;;;;;;4964136;28;20022;-58
2023/04/09 14:24:22;;;;;;;5.82;4.50;;;;;;;;;;4959909;28;20046;-63
2023/04/09 14:26:47;;;;;;;5.40;3.90;;;;;;;;;;4966588;28;20062;-62
2023/04/09 14:29:13;;;;;;;6.53;4.23;;;;;;;;;;4961800;28;20105;-58